Time;durP1;ratioP1;P1;durP2;ratioP2;P2;SDS_P1;SDS_P2;PMS_P1;PMS_P2;Temp;Humidity;BMP_temperature;BMP_pressure;BME280_temperature;BME280_humidity;BME280_pressure;Samples;Min_cycle;Max_cycle;Signal;HPM_P1;HPM_P2
2022/05/04 00:00:46;;;;;;;;;;;21.00;46.30;;;;;;5167499;27;20234;-59
2022/05/04 00:03:12;;;;;;;;;;;21.10;46.10;;;;;;5162320;27;20178;-57
2022/05/04 00:05:38;;;;;;;;;;;21.10;46.10;;;;;;5164136;27;20394;-54
2022/05/04 00:08:04;;;;;;;;;;;21.10;45.90;;;;;;5169073;27;19923;-58
2022/05/04 00:10:31;;;;;;;;;;;21.10;46.00;;;;;;5164215;27;20366;-57
2022/05/04 00:12:57;;;;;;;;;;;21.00;46.20;;;;;;5150232;27;20009;-56
2022/05/04 00:15:23;;;;;;;;;;;21.10;46.00;;;;;;5165932;27;19995;-56
2022/05/04 00:17:49;;;;;;;;;;;21.10;45.90;;;;;;5164155;27;19937;-59
2022/05/04 00:20:14;;;;;;;;;;;21.10;45.80;;;;;;5166149;27;19923;-57
2022/05/04 00:22:40;;;;;;;;;;;21.10;45.80;;;;;;5163137;27;19926;-57
2022/05/04 00:25:06;;;;;;;;;;;21.00;46.00;;;;;;5163809;27;19922;-57
2022/05/04 00:27:33;;;;;;;;;;;21.00;46.20;;;;;;5169548;27;19926;-57
2022/05/04 00:29:58;;;;;;;;;;;21.00;46.00;;;;;;5164170;27;19971;-54
2022/05/04 00:32:24;;;;;;;;;;;21.10;45.70;;;;;;5165699;27;20374;-58
2022/05/04 00:34:50;;;;;;;;;;;21.10;45.70;;;;;;5168214;27;20301;-59
2022/05/04 00:37:16;;;;;;;;;;;21.00;46.00;;;;;;5143226;27;19934;-55
2022/05/04 00:39:42;;;;;;;;;;;20.90;46.30;;;;;;5148609;27;19973;-57
2022/05/04 00:42:15;;;;;;;;;;;21.10;45.70;;;;;;5163191;27;19923;-58
2022/05/04 00:44:41;;;;;;;;;;;21.10;45.70;;;;;;5163679;27;19927;-56
2022/05/04 00:47:07;;;;;;;;;;;21.10;45.60;;;;;;5169538;27;19930;-57
2022/05/04 00:49:33;;;;;;;;;;;21.10;45.50;;;;;;5164048;27;19923;-55
2022/05/04 00:51:58;;;;;;;;;;;21.10;45.70;;;;;;5145399;27;20347;-58
2022/05/04 00:54:24;;;;;;;;;;;21.00;45.70;;;;;;5169173;27;20380;-57
2022/05/04 00:56:50;;;;;;;;;;;21.20;45.30;;;;;;5160178;27;20611;-56
2022/05/04 00:59:16;;;;;;;;;;;21.10;45.30;;;;;;5167743;27;20390;-56
2022/05/04 01:01:42;;;;;;;;;;;21.10;45.30;;;;;;5163039;27;19967;-58
2022/05/04 01:04:08;;;;;;;;;;;21.10;45.30;;;;;;5163405;27;20222;-56
2022/05/04 01:06:33;;;;;;;;;;;21.10;45.30;;;;;;5168912;27;19923;-56
2022/05/04 01:08:59;;;;;;;;;;;21.10;45.30;;;;;;5163489;27;19930;-57
2022/05/04 01:11:25;;;;;;;;;;;21.00;45.50;;;;;;5144774;27;20406;-55
2022/05/04 01:14:01;;;;;;;;;;;21.00;45.70;;;;;;5167238;27;19957;-58
2022/05/04 01:16:27;;;;;;;;;;;21.00;45.60;;;;;;5161137;27;19949;-55
2022/05/04 01:18:53;;;;;;;;;;;21.10;45.60;;;;;;5163731;27;20290;-58
2022/05/04 01:21:18;;;;;;;;;;;21.20;45.40;;;;;;5166995;27;19943;-55
2022/05/04 01:23:44;;;;;;;;;;;20.90;45.90;;;;;;5163123;27;20454;-55
2022/05/04 01:26:10;;;;;;;;;;;21.20;45.30;;;;;;5132942;27;19943;-56
2022/05/04 01:28:36;;;;;;;;;;;21.00;45.60;;;;;;5163205;27;19930;-50
2022/05/04 01:31:01;;;;;;;;;;;21.00;45.80;;;;;;5163230;27;19930;-57
2022/05/04 01:33:27;;;;;;;;;;;21.10;45.20;;;;;;5165371;27;19923;-53
2022/05/04 01:35:53;;;;;;;;;;;20.90;45.80;;;;;;5161645;27;20072;-54
2022/05/04 01:38:19;;;;;;;;;;;21.10;45.30;;;;;;5162764;27;20479;-56
2022/05/04 01:40:45;;;;;;;;;;;20.90;45.30;;;;;;5168210;27;20026;-58
2022/05/04 01:43:11;;;;;;;;;;;21.10;45.00;;;;;;5162645;27;19975;-55
2022/05/04 01:45:36;;;;;;;;;;;21.10;44.80;;;;;;5168333;27;19926;-53
2022/05/04 01:48:02;;;;;;;;;;;20.80;45.50;;;;;;5162754;27;19927;-51
2022/05/04 01:50:28;;;;;;;;;;;21.10;44.80;;;;;;5161366;27;19930;-57
2022/05/04 01:52:54;;;;;;;;;;;21.00;44.90;;;;;;5165652;27;19942;-57
2022/05/04 01:55:20;;;;;;;;;;;21.00;45.10;;;;;;5162269;27;19923;-55
2022/05/04 01:57:45;;;;;;;;;;;21.30;44.40;;;;;;5162425;27;19923;-57
2022/05/04 02:00:11;;;;;;;;;;;21.10;44.70;;;;;;5168082;27;20389;-58
2022/05/04 02:02:37;;;;;;;;;;;21.10;44.70;;;;;;5162585;27;20273;-57
2022/05/04 02:05:03;;;;;;;;;;;20.90;45.20;;;;;;5149225;27;19958;-58
2022/05/04 02:07:29;;;;;;;;;;;21.00;44.70;;;;;;5162479;27;19953;-51
2022/05/04 02:09:56;;;;;;;;;;;20.90;45.10;;;;;;5159542;27;19972;-57
2022/05/04 02:12:22;;;;;;;;;;;21.10;44.60;;;;;;5166474;27;19926;-55
2022/05/04 02:14:48;;;;;;;;;;;20.90;45.10;;;;;;5162174;27;20263;-56
2022/05/04 02:17:13;;;;;;;;;;;21.00;45.00;;;;;;5162259;27;20444;-58
2022/05/04 02:19:39;;;;;;;;;;;21.10;44.90;;;;;;5167957;27;20322;-57
2022/05/04 02:22:05;;;;;;;;;;;21.00;45.00;;;;;;5162454;27;19926;-53
2022/05/04 02:24:31;;;;;;;;;;;21.10;44.80;;;;;;5167775;27;19931;-56
2022/05/04 02:26:56;;;;;;;;;;;21.00;44.90;;;;;;5162018;27;20365;-56
2022/05/04 02:29:22;;;;;;;;;;;21.00;44.90;;;;;;5159276;27;19944;-57
2022/05/04 02:31:48;;;;;;;;;;;21.00;44.70;;;;;;5166678;27;20442;-58
2022/05/04 02:34:14;;;;;;;;;;;21.20;44.50;;;;;;5161880;27;20298;-47
2022/05/04 02:39:24;;;;;;;;;;;21.30;44.30;;;;;;5166342;27;19976;-49
2022/05/04 02:41:52;;;;;;;;;;;21.00;44.80;;;;;;5161804;27;19934;-57
2022/05/04 02:44:18;;;;;;;;;;;21.20;44.30;;;;;;5142822;27;20096;-54
2022/05/04 02:46:43;;;;;;;;;;;20.90;44.70;;;;;;5164580;27;19922;-54
2022/05/04 02:49:09;;;;;;;;;;;21.00;44.80;;;;;;5160425;27;19927;-55
2022/05/04 02:51:35;;;;;;;;;;;21.20;44.40;;;;;;5166965;27;19955;-50
2022/05/04 02:54:01;;;;;;;;;;;21.00;44.90;;;;;;5161694;27;19927;-58
2022/05/04 02:56:26;;;;;;;;;;;21.10;44.50;;;;;;5161687;27;20393;-58
2022/05/04 02:58:53;;;;;;;;;;;21.10;44.60;;;;;;5167498;27;19923;-52
2022/05/04 03:04:07;;;;;;;;;;;21.10;44.60;;;;;;5160231;27;20030;-57
2022/05/04 03:06:33;;;;;;;;;;;20.90;45.10;;;;;;5164809;27;19930;-58
2022/05/04 03:08:59;;;;;;;;;;;21.10;44.50;;;;;;5161293;27;20358;-56
2022/05/04 03:14:09;;;;;;;;;;;21.10;44.50;;;;;;5167279;27;19933;-54
2022/05/04 03:16:35;;;;;;;;;;;21.00;44.50;;;;;;5161389;27;19927;-54
2022/05/04 03:19:01;;;;;;;;;;;21.10;44.40;;;;;;5161680;27;19934;-52
2022/05/04 03:21:27;;;;;;;;;;;21.00;44.40;;;;;;5166907;27;19923;-57
2022/05/04 03:23:53;;;;;;;;;;;21.00;44.60;;;;;;5158004;27;19926;-56
2022/05/04 03:26:19;;;;;;;;;;;21.20;44.10;;;;;;5165838;27;19931;-50
2022/05/04 03:28:45;;;;;;;;;;;21.00;44.60;;;;;;5161282;27;19922;-58
2022/05/04 03:31:11;;;;;;;;;;;21.00;44.30;;;;;;5161181;27;19936;-55
2022/05/04 03:33:37;;;;;;;;;;;21.00;44.70;;;;;;5166579;27;19965;-55
2022/05/04 03:36:03;;;;;;;;;;;21.20;44.10;;;;;;5161388;27;19922;-57
2022/05/04 03:38:28;;;;;;;;;;;21.10;44.40;;;;;;5161485;27;20417;-53
2022/05/04 03:40:54;;;;;;;;;;;20.90;44.80;;;;;;5165045;27;19923;-57
2022/05/04 03:43:20;;;;;;;;;;;21.10;44.40;;;;;;5160158;27;19927;-56
2022/05/04 03:45:46;;;;;;;;;;;21.00;44.80;;;;;;5169888;27;20031;-59
2022/05/04 03:48:11;;;;;;;;;;;21.10;44.70;;;;;;5164727;27;20331;-58
2022/05/04 03:50:37;;;;;;;;;;;21.10;44.40;;;;;;5164855;27;19946;-59
2022/05/04 03:53:03;;;;;;;;;;;21.00;44.70;;;;;;5170035;27;19926;-56
2022/05/04 03:55:29;;;;;;;;;;;21.10;44.60;;;;;;5146161;27;19983;-57
2022/05/04 03:57:55;;;;;;;;;;;21.00;44.70;;;;;;5164696;27;20018;-57
2022/05/04 04:00:20;;;;;;;;;;;21.10;44.60;;;;;;5167037;27;20328;-47
2022/05/04 04:02:46;;;;;;;;;;;20.90;44.90;;;;;;5163072;27;19927;-55
2022/05/04 04:05:12;;;;;;;;;;;21.20;44.40;;;;;;5168158;27;19926;-55
2022/05/04 04:07:38;;;;;;;;;;;21.00;44.70;;;;;;5166124;27;19923;-55
2022/05/04 04:10:04;;;;;;;;;;;21.00;45.00;;;;;;5164180;27;19948;-59
2022/05/04 04:12:30;;;;;;;;;;;21.10;44.60;;;;;;5169676;27;19926;-54
2022/05/04 04:14:56;;;;;;;;;;;21.10;44.80;;;;;;5164339;27;19934;-57
2022/05/04 04:17:22;;;;;;;;;;;20.90;45.20;;;;;;5163267;27;19933;-56
2022/05/04 04:21:50;;;;;;;;;;;21.10;44.80;;;;;;5146695;27;19923;-56
2022/05/04 04:22:33;;;;;;;;;;;21.10;44.90;;;;;;5163687;27;19929;-56
2022/05/04 04:24:59;;;;;;;;;;;21.10;45.00;;;;;;5163718;27;20398;-55
2022/05/04 04:27:25;;;;;;;;;;;20.90;45.30;;;;;;5169273;27;19923;-57
2022/05/04 04:29:50;;;;;;;;;;;21.20;44.70;;;;;;5163808;27;19923;-58
2022/05/04 04:32:16;;;;;;;;;;;21.10;44.70;;;;;;5168910;27;19934;-56
2022/05/04 04:34:42;;;;;;;;;;;21.00;44.80;;;;;;5165091;27;19949;-50
2022/05/04 04:37:08;;;;;;;;;;;20.90;45.20;;;;;;5161074;27;19923;-57
2022/05/04 04:39:33;;;;;;;;;;;21.10;44.90;;;;;;5168116;27;19927;-55
2022/05/04 04:41:59;;;;;;;;;;;21.00;45.10;;;;;;5163504;27;20286;-58
2022/05/04 04:44:25;;;;;;;;;;;21.10;45.00;;;;;;5163687;27;19953;-55
2022/05/04 04:46:51;;;;;;;;;;;20.90;45.30;;;;;;5169095;27;19922;-57
2022/05/04 04:49:17;;;;;;;;;;;21.00;45.00;;;;;;5163689;27;19926;-57
2022/05/04 04:51:43;;;;;;;;;;;21.00;45.00;;;;;;5166364;27;19927;-54
2022/05/04 04:54:08;;;;;;;;;;;21.00;45.00;;;;;;5165344;27;20297;-57
2022/05/04 04:56:34;;;;;;;;;;;21.20;44.60;;;;;;5161429;27;19923;-51
2022/05/04 04:59:00;;;;;;;;;;;21.00;45.20;;;;;;5168695;27;19927;-55
2022/05/04 05:01:26;;;;;;;;;;;21.20;44.70;;;;;;5163525;27;19939;-56
2022/05/04 05:03:51;;;;;;;;;;;21.10;44.90;;;;;;5163462;27;19946;-57
2022/05/04 05:06:19;;;;;;;;;;;21.10;45.00;;;;;;5150133;27;20417;-57
2022/05/04 05:08:44;;;;;;;;;;;21.00;45.10;;;;;;5163488;27;19927;-59
2022/05/04 05:11:10;;;;;;;;;;;21.00;45.30;;;;;;5163655;27;19979;-54
2022/05/04 05:16:06;;;;;;;;;;;21.00;45.50;;;;;;5166245;27;20290;-56
2022/05/04 05:16:25;;;;;;;;;;;21.00;45.40;;;;;;5158909;27;19994;-56
2022/05/04 05:18:50;;;;;;;;;;;21.00;45.60;;;;;;5164976;27;19923;-56
2022/05/04 05:21:16;;;;;;;;;;;21.10;45.60;;;;;;5167095;27;20371;-59
2022/05/04 05:23:42;;;;;;;;;;;21.00;45.90;;;;;;5163041;27;19923;-55
2022/05/04 05:26:08;;;;;;;;;;;21.00;46.20;;;;;;5168769;27;19936;-57
2022/05/04 05:28:33;;;;;;;;;;;21.00;46.30;;;;;;5144625;27;20035;-56
2022/05/04 05:30:59;;;;;;;;;;;21.00;46.70;;;;;;5161737;27;19962;-57
2022/05/04 05:33:25;;;;;;;;;;;21.20;46.30;;;;;;5165924;27;19926;-53
2022/05/04 05:35:51;;;;;;;;;;;21.10;46.40;;;;;;5162438;27;19923;-57
2022/05/04 05:38:17;;;;;;;;;;;21.10;46.30;;;;;;5162675;27;19923;-56
2022/05/04 05:40:43;;;;;;;;;;;21.10;46.50;;;;;;5168595;27;19927;-48
2022/05/04 05:43:09;;;;;;;;;;;21.00;46.60;;;;;;5162814;27;19958;-57
2022/05/04 05:45:34;;;;;;;;;;;21.30;46.20;;;;;;5168644;27;20902;-58
2022/05/04 05:48:00;;;;;;;;;;;21.00;46.60;;;;;;5162841;27;19923;-52
2022/05/04 05:50:26;;;;;;;;;;;21.00;46.90;;;;;;5160210;27;19927;-57
2022/05/04 05:52:52;;;;;;;;;;;21.00;46.70;;;;;;5166700;27;19929;-58
2022/05/04 05:55:18;;;;;;;;;;;21.10;46.60;;;;;;5162555;27;20373;-58
2022/05/04 05:57:43;;;;;;;;;;;21.00;46.90;;;;;;5162917;27;20317;-56
2022/05/04 06:00:09;;;;;;;;;;;21.10;46.70;;;;;;5168023;27;19923;-56
2022/05/04 06:02:35;;;;;;;;;;;21.00;46.80;;;;;;5162655;27;20338;-56
2022/05/04 06:05:01;;;;;;;;;;;21.10;46.60;;;;;;5168206;27;19927;-56
2022/05/04 06:07:27;;;;;;;;;;;21.20;46.60;;;;;;5161239;27;19923;-57
2022/05/04 06:09:53;;;;;;;;;;;21.10;46.90;;;;;;5159539;27;19973;-55
2022/05/04 06:12:19;;;;;;;;;;;21.10;47.00;;;;;;5167174;27;19922;-57
2022/05/04 06:14:44;;;;;;;;;;;21.10;47.00;;;;;;5141746;27;19927;-58
2022/05/04 06:17:10;;;;;;;;;;;21.00;47.10;;;;;;5162142;27;19923;-57
2022/05/04 06:19:36;;;;;;;;;;;21.10;46.80;;;;;;5148203;27;19923;-55
2022/05/04 06:22:02;;;;;;;;;;;21.20;46.90;;;;;;5162211;27;19975;-56
2022/05/04 06:24:27;;;;;;;;;;;21.20;47.10;;;;;;5168051;27;20285;-57
2022/05/04 06:26:53;;;;;;;;;;;21.20;47.10;;;;;;5159757;27;20524;-55
2022/05/04 06:29:19;;;;;;;;;;;21.20;47.10;;;;;;5160283;27;20017;-56
2022/05/04 06:34:29;;;;;;;;;;;21.30;47.00;;;;;;5157799;27;19923;-58
2022/05/04 06:36:55;;;;;;;;;;;21.30;46.70;;;;;;5161928;27;19930;-57
2022/05/04 06:39:20;;;;;;;;;;;21.30;46.90;;;;;;5167473;27;20349;-56
2022/05/04 06:41:47;;;;;;;;;;;21.20;47.00;;;;;;5162226;27;19930;-56
2022/05/04 06:44:13;;;;;;;;;;;21.30;46.80;;;;;;5161094;27;20306;-58
2022/05/04 06:46:40;;;;;;;;;;;21.20;46.50;;;;;;5164425;27;19923;-58
2022/05/04 06:49:06;;;;;;;;;;;21.10;46.70;;;;;;5161330;27;19926;-56
2022/05/04 06:51:33;;;;;;;;;;;21.10;46.80;;;;;;5167267;27;20362;-58
2022/05/04 06:53:59;;;;;;;;;;;21.20;47.00;;;;;;5161683;27;20398;-56
2022/05/04 06:56:25;;;;;;;;;;;21.20;47.00;;;;;;5161582;27;19927;-54
2022/05/04 06:58:50;;;;;;;;;;;21.30;46.70;;;;;;5167433;27;20351;-57
2022/05/04 07:01:16;;;;;;;;;;;21.30;46.80;;;;;;5161979;27;19922;-58
2022/05/04 07:03:42;;;;;;;;;;;21.30;46.50;;;;;;5140137;27;19957;-59
2022/05/04 07:06:08;;;;;;;;;;;21.30;46.30;;;;;;5165653;27;19929;-58
2022/05/04 07:08:34;;;;;;;;;;;21.30;46.00;;;;;;5161439;27;20026;-58
2022/05/04 07:10:59;;;;;;;;;;;21.30;45.50;;;;;;5165685;27;19960;-54
2022/05/04 07:13:25;;;;;;;;;;;21.40;45.30;;;;;;5162894;27;20358;-56
2022/05/04 07:15:51;;;;;;;;;;;21.40;45.10;;;;;;5161672;27;20438;-57
2022/05/04 07:18:17;;;;;;;;;;;21.40;45.40;;;;;;5168148;27;20358;-56
2022/05/04 07:20:42;;;;;;;;;;;21.40;45.60;;;;;;5164688;27;19923;-57
2022/05/04 07:23:08;;;;;;;;;;;21.50;44.90;;;;;;5161854;27;19923;-56
2022/05/04 07:25:34;;;;;;;;;;;21.50;44.70;;;;;;5169892;27;19923;-58
2022/05/04 07:28:00;;;;;;;;;;;21.60;44.30;;;;;;5164905;27;19930;-56
2022/05/04 07:30:26;;;;;;;;;;;21.60;43.90;;;;;;5167156;27;19955;-56
2022/05/04 07:32:52;;;;;;;;;;;21.60;43.80;;;;;;5168722;27;19930;-57
2022/05/04 07:35:18;;;;;;;;;;;21.60;43.80;;;;;;5164867;27;19926;-58
2022/05/04 07:37:44;;;;;;;;;;;21.70;43.60;;;;;;5170303;27;19946;-56
2022/05/04 07:42:55;;;;;;;;;;;21.60;44.10;;;;;;5163250;27;20308;-57
2022/05/04 07:45:21;;;;;;;;;;;21.60;44.30;;;;;;5170086;27;19923;-57
2022/05/04 07:47:46;;;;;;;;;;;21.60;44.00;;;;;;5164854;27;20361;-57
2022/05/04 07:50:12;;;;;;;;;;;21.60;44.20;;;;;;5164567;27;19923;-56
2022/05/04 07:52:38;;;;;;;;;;;21.60;44.10;;;;;;5170206;27;20377;-58
2022/05/04 07:55:04;;;;;;;;;;;21.60;44.20;;;;;;5164531;27;19966;-58
2022/05/04 07:57:30;;;;;;;;;;;21.60;44.20;;;;;;5167304;27;19996;-54
2022/05/04 08:05:29;;;;;;;;;;;21.60;44.10;;;;;;5161935;27;20333;-58
2022/05/04 08:07:55;;;;;;;;;;;21.70;44.30;;;;;;5169957;27;19930;-58
2022/05/04 08:10:21;;;;;;;;;;;21.70;44.00;;;;;;5164228;27;20369;-57
2022/05/04 08:12:47;;;;;;;;;;;21.80;44.10;;;;;;5170056;27;19974;-57
2022/05/04 08:15:13;;;;;;;;;;;21.80;43.90;;;;;;5164522;27;20282;-58
2022/05/04 08:17:39;;;;;;;;;;;21.80;43.70;;;;;;5161285;27;19923;-58
2022/05/04 08:20:05;;;;;;;;;;;21.70;43.80;;;;;;5168673;27;19976;-58
2022/05/04 08:22:31;;;;;;;;;;;21.70;43.70;;;;;;5163808;27;19945;-57
2022/05/04 08:24:56;;;;;;;;;;;21.80;43.60;;;;;;5164142;27;19923;-58
2022/05/04 08:27:22;;;;;;;;;;;21.70;43.80;;;;;;5169302;27;20441;-57
2022/05/04 08:29:48;;;;;;;;;;;21.80;43.30;;;;;;5163381;27;19929;-57
2022/05/04 08:32:14;;;;;;;;;;;21.80;43.00;;;;;;5169628;27;19923;-57
2022/05/04 08:34:40;;;;;;;;;;;21.80;43.00;;;;;;5162979;27;19927;-58
2022/05/04 08:37:06;;;;;;;;;;;21.80;43.00;;;;;;5161371;27;19930;-56
2022/05/04 08:39:31;;;;;;;;;;;21.80;43.00;;;;;;5168927;27;20025;-56
2022/05/04 08:41:58;;;;;;;;;;;21.80;43.30;;;;;;5163744;27;19922;-58
2022/05/04 08:44:24;;;;;;;;;;;21.80;43.40;;;;;;5163823;27;20053;-57
2022/05/04 08:46:50;;;;;;;;;;;21.80;43.10;;;;;;5168993;27;20383;-57
2022/05/04 08:49:16;;;;;;;;;;;21.80;43.20;;;;;;5163811;27;20351;-57
2022/05/04 08:51:42;;;;;;;;;;;21.90;43.10;;;;;;5148139;27;20264;-51
2022/05/04 08:54:08;;;;;;;;;;;21.90;43.20;;;;;;5163997;27;19931;-58
2022/05/04 08:56:34;;;;;;;;;;;21.90;43.30;;;;;;5162193;27;19930;-58
2022/05/04 08:59:03;;;;;;;;;;;21.90;43.70;;;;;;5168751;27;20014;-58
2022/05/04 09:01:30;;;;;;;;;;;21.80;44.00;;;;;;5163506;27;19923;-58
2022/05/04 09:03:57;;;;;;;;;;;21.80;43.70;;;;;;5163113;27;19927;-58
2022/05/04 09:06:26;;;;;;;;;;;21.90;43.50;;;;;;5169112;27;20021;-58
2022/05/04 09:08:59;;;;;;;;;;;21.90;43.70;;;;;;5144797;27;20296;-57
2022/05/04 09:11:26;;;;;;;;;;;21.80;44.10;;;;;;5161850;27;19922;-55
2022/05/04 09:13:51;;;;;;;;;;;21.80;44.30;;;;;;5166170;27;19923;-58
2022/05/04 09:16:24;;;;;;;;;;;21.80;45.20;;;;;;5162648;27;19923;-58
2022/05/04 09:18:49;;;;;;;;;;;21.80;46.40;;;;;;5164909;27;19944;-56
2022/05/04 09:21:24;;;;;;;;;;;21.80;47.10;;;;;;5167054;27;19926;-58
2022/05/04 09:23:52;;;;;;;;;;;21.70;47.60;;;;;;5162868;27;19922;-57
2022/05/04 09:26:19;;;;;;;;;;;21.80;47.30;;;;;;5168847;27;20021;-58
2022/05/04 09:28:47;;;;;;;;;;;21.80;47.60;;;;;;5163146;27;19981;-59
2022/05/04 09:31:14;;;;;;;;;;;21.80;47.90;;;;;;5159700;27;19937;-58
2022/05/04 09:33:40;;;;;;;;;;;21.80;48.50;;;;;;5167149;27;19933;-57
2022/05/04 09:36:06;;;;;;;;;;;21.70;48.80;;;;;;5162693;27;19923;-59
2022/05/04 09:46:51;;;;;;;;;;;21.60;49.00;;;;;;5163120;27;20382;-57
2022/05/04 09:49:30;;;;;;;;;;;21.60;49.10;;;;;;5165256;27;19923;-59
2022/05/04 09:51:56;;;;;;;;;;;21.60;49.20;;;;;;5161404;27;19923;-58
2022/05/04 09:54:22;;;;;;;;;;;21.60;49.00;;;;;;5162360;27;19961;-58
2022/05/04 09:56:52;;;;;;;;;;;21.60;49.10;;;;;;5167913;27;20399;-58
2022/05/04 09:59:21;;;;;;;;;;;21.50;49.50;;;;;;5162299;27;19923;-58
2022/05/04 10:01:48;;;;;;;;;;;21.60;49.60;;;;;;5162566;27;20902;-58
2022/05/04 10:04:14;;;;;;;;;;;21.70;49.50;;;;;;5167914;27;19933;-55
2022/05/04 10:06:40;;;;;;;;;;;21.70;49.70;;;;;;5160955;27;19929;-57
2022/05/04 10:09:06;;;;;;;;;;;21.80;49.90;;;;;;5162884;27;20373;-57
2022/05/04 10:11:35;;;;;;;;;;;21.80;50.40;;;;;;5164780;27;19977;-58
2022/05/04 10:14:02;;;;;;;;;;;21.80;50.50;;;;;;5162165;27;19939;-58
2022/05/04 10:16:29;;;;;;;;;;;21.80;50.30;;;;;;5167899;27;19971;-56
2022/05/04 10:18:55;;;;;;;;;;;21.80;49.90;;;;;;5162065;27;19927;-56
2022/05/04 10:21:21;;;;;;;;;;;22.00;49.10;;;;;;5143663;27;20369;-58
2022/05/04 10:23:48;;;;;;;;;;;22.00;48.10;;;;;;5167618;27;19923;-57
2022/05/04 10:26:13;;;;;;;;;;;22.00;47.60;;;;;;5159175;27;19927;-58
2022/05/04 10:30:30;;;;;;;;;;;21.90;47.20;;;;;;5160885;27;20022;-58
2022/05/04 10:31:28;;;;;;;;;;;21.90;47.30;;;;;;5167281;27;20017;-56
2022/05/04 10:33:56;;;;;;;;;;;22.00;47.20;;;;;;5162150;27;19923;-58
2022/05/04 10:36:31;;;;;;;;;;;22.00;47.40;;;;;;5143628;27;20413;-59
2022/05/04 10:38:58;;;;;;;;;;;22.10;46.80;;;;;;5167713;27;19978;-58
2022/05/04 10:41:36;;;;;;;;;;;22.10;46.60;;;;;;5161972;27;19929;-58
2022/05/04 10:44:02;;;;;;;;;;;22.10;46.70;;;;;;5159906;27;19929;-58
2022/05/04 10:46:30;;;;;;;;;;;22.10;47.10;;;;;;5165375;27;20291;-58
2022/05/04 10:48:57;;;;;;;;;;;22.20;46.90;;;;;;5161593;27;19930;-58
2022/05/04 10:51:24;;;;;;;;;;;22.20;46.90;;;;;;5146579;27;19923;-58
2022/05/04 10:53:51;;;;;;;;;;;22.20;47.30;;;;;;5165683;27;19923;-58
2022/05/04 10:56:16;;;;;;;;;;;22.20;46.10;;;;;;5165505;27;20409;-58
2022/05/04 10:58:46;;;;;;;;;;;22.30;45.10;;;;;;5171189;27;19922;-58
2022/05/04 11:01:34;;;;;;;;;;;22.30;44.60;;;;;;5164406;27;21256;-57
2022/05/04 11:04:02;;;;;;;;;;;22.30;45.70;;;;;;5162930;27;19955;-58
2022/05/04 11:06:29;;;;;;;;;;;22.30;46.00;;;;;;5170369;27;20017;-58
2022/05/04 11:08:56;;;;;;;;;;;22.40;45.60;;;;;;5165036;27;19978;-58
2022/05/04 11:11:22;;;;;;;;;;;22.40;45.10;;;;;;5165265;27;20262;-59
2022/05/04 11:13:48;;;;;;;;;;;21.60;46.10;;;;;;5170493;27;19975;-57
2022/05/04 11:16:14;;;;;;;;;;;21.20;47.00;;;;;;5165385;27;20301;-59
2022/05/04 11:18:40;;;;;;;;;;;21.40;47.90;;;;;;5170801;27;20602;-56
2022/05/04 11:21:12;;;;;;;;;;;21.70;47.10;;;;;;5162612;27;19961;-57
2022/05/04 11:23:38;;;;;;;;;;;21.70;47.00;;;;;;5163666;27;20338;-58
2022/05/04 11:26:04;;;;;;;;;;;21.70;46.80;;;;;;5170338;27;19923;-59
2022/05/04 11:28:30;;;;;;;;;;;21.70;46.80;;;;;;5164956;27;19929;-58
2022/05/04 11:30:56;;;;;;;;;;;21.70;46.40;;;;;;5164801;27;19923;-59
2022/05/04 11:33:22;;;;;;;;;;;21.70;46.00;;;;;;5170599;27;19947;-59
2022/05/04 11:35:51;;;;;;;;;;;21.70;45.50;;;;;;5165034;27;20017;-58
2022/05/04 11:38:18;;;;;;;;;;;21.60;45.20;;;;;;5163767;27;19923;-57
2022/05/04 11:40:44;;;;;;;;;;;21.70;45.00;;;;;;5167603;27;20018;-58
2022/05/04 11:43:20;;;;;;;;;;;21.70;44.80;;;;;;5163983;27;19938;-56
2022/05/04 11:45:46;;;;;;;;;;;21.60;44.80;;;;;;5169941;27;19929;-59
2022/05/04 11:48:11;;;;;;;;;;;21.70;44.50;;;;;;5165048;27;19923;-59
2022/05/04 11:50:37;;;;;;;;;;;21.70;44.10;;;;;;5164653;27;20354;-60
2022/05/04 11:53:03;;;;;;;;;;;21.70;44.20;;;;;;5170446;27;19923;-59
2022/05/04 11:55:29;;;;;;;;;;;21.70;43.80;;;;;;5164582;27;20404;-58
2022/05/04 11:57:58;;;;;;;;;;;21.80;43.50;;;;;;5161491;27;19931;-57
2022/05/04 12:00:24;;;;;;;;;;;21.70;43.40;;;;;;5149132;27;19923;-59
2022/05/04 12:02:50;;;;;;;;;;;21.70;43.40;;;;;;5164147;27;19926;-58
2022/05/04 12:05:15;;;;;;;;;;;21.80;43.40;;;;;;5165536;27;19945;-56
2022/05/04 12:07:41;;;;;;;;;;;21.70;43.60;;;;;;5168062;27;20021;-57
2022/05/04 12:10:07;;;;;;;;;;;21.70;44.00;;;;;;5164662;27;20449;-58
2022/05/04 12:12:33;;;;;;;;;;;21.80;44.10;;;;;;5170162;27;19922;-58
2022/05/04 12:15:03;;;;;;;;;;;21.80;44.30;;;;;;5144898;27;19933;-57
2022/05/04 12:17:29;;;;;;;;;;;21.70;44.70;;;;;;5161564;27;19927;-59
2022/05/04 12:19:55;;;;;;;;;;;21.80;44.80;;;;;;5169081;27;19927;-59
2022/05/04 12:22:20;;;;;;;;;;;21.70;44.90;;;;;;5163878;27;19926;-59
2022/05/04 12:24:46;;;;;;;;;;;21.70;44.90;;;;;;5145448;27;20305;-57
2022/05/04 12:27:12;;;;;;;;;;;21.70;44.90;;;;;;5150796;27;19922;-59
2022/05/04 12:35:08;;;;;;;;;;;21.70;43.80;;;;;;5166035;27;20010;-58
2022/05/04 12:37:34;;;;;;;;;;;21.70;43.70;;;;;;5163032;27;19922;-59
2022/05/04 12:40:01;;;;;;;;;;;21.70;43.40;;;;;;5149283;27;20030;-57
2022/05/04 12:42:27;;;;;;;;;;;21.80;43.00;;;;;;5165677;27;19926;-59
2022/05/04 12:44:53;;;;;;;;;;;21.70;43.50;;;;;;5145210;27;19933;-60
2022/05/04 12:47:22;;;;;;;;;;;21.70;43.30;;;;;;5169432;27;20293;-57
2022/05/04 12:49:48;;;;;;;;;;;21.70;43.30;;;;;;5164012;27;19923;-58
2022/05/04 12:52:14;;;;;;;;;;;21.70;43.40;;;;;;5162112;27;20317;-59
2022/05/04 12:54:40;;;;;;;;;;;21.70;43.60;;;;;;5167047;27;19930;-59
2022/05/04 12:57:05;;;;;;;;;;;21.70;43.60;;;;;;5163342;27;20283;-57
2022/05/04 12:59:31;;;;;;;;;;;21.80;43.70;;;;;;5163972;27;20338;-58
2022/05/04 13:01:58;;;;;;;;;;;21.70;44.00;;;;;;5168863;27;19926;-59
2022/05/04 13:04:23;;;;;;;;;;;21.70;44.20;;;;;;5163349;27;20433;-58
2022/05/04 13:06:49;;;;;;;;;;;21.70;44.00;;;;;;5169055;27;19976;-58
2022/05/04 13:09:15;;;;;;;;;;;21.70;43.70;;;;;;5163758;27;19922;-59
2022/05/04 13:11:42;;;;;;;;;;;21.60;43.80;;;;;;5160241;27;19926;-58
2022/05/04 13:14:08;;;;;;;;;;;21.10;43.80;;;;;;5167708;27;19923;-59
2022/05/04 13:16:33;;;;;;;;;;;20.70;43.30;;;;;;5163212;27;20022;-59
2022/05/04 13:19:00;;;;;;;;;;;21.00;45.10;;;;;;5163250;27;20394;-56
2022/05/04 13:21:26;;;;;;;;;;;21.80;44.20;;;;;;5168680;27;19931;-58
2022/05/04 13:23:52;;;;;;;;;;;22.00;43.70;;;;;;5163261;27;19934;-56
2022/05/04 13:26:17;;;;;;;;;;;22.20;42.90;;;;;;5150338;27;19923;-58
2022/05/04 13:28:44;;;;;;;;;;;22.30;42.90;;;;;;5161699;27;19923;-55
2022/05/04 13:31:10;;;;;;;;;;;22.40;42.70;;;;;;5160689;27;20017;-58
2022/05/04 13:33:36;;;;;;;;;;;22.50;42.40;;;;;;5148775;27;19923;-58
2022/05/04 13:36:01;;;;;;;;;;;22.50;42.80;;;;;;5162893;27;19926;-58
2022/05/04 13:38:27;;;;;;;;;;;22.30;43.30;;;;;;5163003;27;19928;-58
2022/05/04 13:40:53;;;;;;;;;;;21.40;45.20;;;;;;5168394;27;19931;-57
2022/05/04 13:43:19;;;;;;;;;;;21.30;46.10;;;;;;5163061;27;19930;-58
2022/05/04 13:45:45;;;;;;;;;;;21.60;45.90;;;;;;5168556;27;19923;-57
2022/05/04 13:48:11;;;;;;;;;;;21.80;45.10;;;;;;5139600;27;19923;-59
2022/05/04 13:53:21;;;;;;;;;;;21.80;44.90;;;;;;5167958;27;20382;-58
2022/05/04 13:55:51;;;;;;;;;;;21.80;44.70;;;;;;5162653;27;19930;-58
2022/05/04 13:58:18;;;;;;;;;;;21.80;44.60;;;;;;5162698;27;19948;-58
2022/05/04 14:00:44;;;;;;;;;;;21.80;44.60;;;;;;5168412;27;19980;-57
2022/05/04 14:03:10;;;;;;;;;;;21.80;44.20;;;;;;5162685;27;19952;-59
2022/05/04 14:05:36;;;;;;;;;;;21.80;44.50;;;;;;5161158;27;20185;-59
2022/05/04 14:08:02;;;;;;;;;;;21.80;44.80;;;;;;5165572;27;20362;-58
2022/05/04 14:10:28;;;;;;;;;;;21.80;44.60;;;;;;5162204;27;19923;-59
2022/05/04 14:12:54;;;;;;;;;;;21.80;45.00;;;;;;5166501;27;20017;-58
2022/05/04 14:15:20;;;;;;;;;;;21.90;44.70;;;;;;5163925;27;19927;-59
2022/05/04 14:17:46;;;;;;;;;;;21.80;44.20;;;;;;5162399;27;19934;-59
2022/05/04 14:20:12;;;;;;;;;;;21.80;44.00;;;;;;5168078;27;19935;-58
2022/05/04 14:22:37;;;;;;;;;;;21.80;44.10;;;;;;5162441;27;19923;-59
2022/05/04 14:25:03;;;;;;;;;;;21.80;44.00;;;;;;5159572;27;19983;-58
2022/05/04 14:27:29;;;;;;;;;;;21.80;44.30;;;;;;5165945;27;20017;-59
2022/05/04 14:29:55;;;;;;;;;;;21.80;44.20;;;;;;5161909;27;20018;-57
2022/05/04 14:32:21;;;;;;;;;;;21.80;44.10;;;;;;5164349;27;20289;-57
2022/05/04 14:34:46;;;;;;;;;;;21.80;44.00;;;;;;5165690;27;19966;-58
2022/05/04 14:37:12;;;;;;;;;;;21.80;44.40;;;;;;5162334;27;19927;-59
2022/05/04 14:39:38;;;;;;;;;;;21.80;44.20;;;;;;5167727;27;20278;-59
2022/05/04 14:42:04;;;;;;;;;;;21.80;43.80;;;;;;5161014;27;19933;-58
2022/05/04 14:44:31;;;;;;;;;;;21.80;43.70;;;;;;5159402;27;19923;-58
2022/05/04 14:46:57;;;;;;;;;;;21.80;43.80;;;;;;5166955;27;20025;-58